CheckWX is a tool to help pilots better visualize weather data.  It is not intended as a substitute for an official pre-flight weather briefing.

14:53:10 UTC

DTTX METAR
Sfax Thyna International Airport
Sfax, Tunisia
Current

53 mins ago

DTTX 201400Z 10011KT 070V140 9999 FEW030 23/10 Q1013
Observed
May-20 @ 14:00 UTC
Wind
  • 100° at 11 KTS
Visibility
10,000+ meters
Flight Rules
VFR
Cloud Levels
  • Few at 3,000' AGL
Temperature
23°C / 73°F
Dewpoint
10°C / 50°F
Humidity
44%
Altimeter
29.91" Hg
Pressure
1012.92 hPa
Previous

2 hours ago

DTTX 201300Z 10011KT 070V130 9999 FEW030 23/12 Q1014
Observed
May-20 @ 13:00 UTC
Wind
  • 100° at 11 KTS
Visibility
10,000+ meters
Flight Rules
VFR
Cloud Levels
  • Few at 3,000' AGL
Temperature
23°C / 73°F
Dewpoint
12°C / 54°F
Humidity
50%
Altimeter
29.94" Hg
Pressure
1013.92 hPa
Previous

3 hours ago

DTTX 201200Z 11012KT 9999 FEW030 23/12 Q1014
Observed
May-20 @ 12:00 UTC
Wind
  • 110° at 12 KTS
Visibility
10,000+ meters
Flight Rules
VFR
Cloud Levels
  • Few at 3,000' AGL
Temperature
23°C / 73°F
Dewpoint
12°C / 54°F
Humidity
50%
Altimeter
29.94" Hg
Pressure
1013.92 hPa